Terminal Aerodrome Forecast
Issued by NWS Jackson, MS

Home | Current Version | Previous Version | Text Only | Print | Product List | Glossary On
Versions: 1 2 3 4 5 6 7 8 9 10 11 12
000
FTUS44 KJAN 242346
TAFGWO
TAF
KGWO 242346Z 2500/2524 18010KT P6SM VCSH SCT040 BKN060 OVC100
     FM250200 17010KT 6SM -SHRA VCTS SCT030 OVC050CB
     FM251300 17012KT P6SM VCTS SCT030 BKN050CB=

USA.gov is the U.S. government's official web portal to all federal, state and local government web resources and services.